Merrill, WI

10:06 AM CDT on October 23, 2014 (GMT -0500)
Merrill Municipal | Change Station
CLOSE
Current Station
Airport
Location: Merrill,
Elevation: 1316 ft
Nearby Weather Stations

Elev 1316 ft 45.20 °N, 89.71 °W | Updated 11 minutes ago

Overcast
Overcast
43 °F
Feels Like 40 °F
N
5
Wind Variable Wind from South

Today
High -- | Low -- °F
--% Chance of Precip.
Yesterday
High -- | Low -- °F
Precip. -- in
7:25 AM 6:00 PM
Waning Crescent, 0% visible
Pressure 30.07 in
Visibility 5.0 miles
Clouds Overcast 1600 ft
Windchill 40 °F
Dew Point 41 °F
Humidity 94%
Rainfall 0.08 in
Snow Depth Not available.
UV 1 out of 12
Pollen .10 out of 12
Air Quality Not available.
Flu Activity Sporadic
METAR KRRL 231455Z AUTO 17004KT 5SM RA OVC016 06/05 A3007 RMK AO2 T00600051

More Conditions Fewer Conditions

Pressure 30.07 in
Visibility 5.0 miles
Clouds Overcast 1600 ft
Windchill 40 °F
Dew Point 41 °F
Humidity 94%
Rainfall 0.08 in
Snow Depth Not available.
UV 1 out of 12
Pollen .10 out of 12
Air Quality Not available.
Flu Activity Sporadic
METAR KRRL 231455Z AUTO 17004KT 5SM RA OVC016 06/05 A3007 RMK AO2 T00600051

More Conditions Fewer Conditions

10-Day Weather Forecast

Almanac

Astronomy

Oct. 23, 2014 Rise Set
Actual Time 7:25 AM CDT 6:00 PM CDT
Civil Twilight 6:55 AM CDT 6:30 PM CDT
Nautical Twilight 6:20 AM CDT 7:04 PM CDT
Astronomical Twilight 5:46 AM CDT 7:38 PM CDT
Moon 7:04 AM CDT 6:01 PM CDT
Length of Visible Light 11h 34m
Length of Day
10h 34m
Tomorrow will be 2m 57s shorter.
Waning Crescent, 0% of the Moon is Illuminated
Today
Waning Crescent
Oct 23
New
Oct 30
First Quarter
Nov 6
Full
Nov 14
Last Quarter

Today's Extremes

State Highs State Lows

Community

WunderPhotos

Upload Photos

1,764,277 photos uploaded!

Nearby

Snow Depth

Station Depth Elevation
No new snow has been reported.

Earthquake Activity

City Distance Mag. Time & Date
No recent earthquake activity has been reported nearby.
Minimum magnitude displayed is 2.5.

Coastal Water Temperatures

Place Temperature
No Stations Reporting

Nearby Weather Stations